createdAt,value
2023-08-09T00:00:53.640Z,94.60
2023-08-09T00:03:17.015Z,94.70
2023-08-09T00:05:40.266Z,94.80
2023-08-09T00:08:05.505Z,94.80
2023-08-09T00:10:28.770Z,94.70
2023-08-09T00:12:53.452Z,94.50
2023-08-09T00:15:17.082Z,94.40
2023-08-09T00:17:40.318Z,94.50
2023-08-09T00:20:03.694Z,94.40
2023-08-09T00:22:27.601Z,94.50
2023-08-09T00:24:52.603Z,94.60
2023-08-09T00:27:15.938Z,94.60
2023-08-09T00:29:39.351Z,94.50
2023-08-09T00:32:02.619Z,94.70
2023-08-09T00:34:25.822Z,94.70
2023-08-09T00:36:49.190Z,94.80
2023-08-09T00:39:12.441Z,94.80
2023-08-09T00:41:37.013Z,94.80
2023-08-09T00:44:00.496Z,94.80
2023-08-09T00:46:23.885Z,94.70
2023-08-09T00:48:47.242Z,94.80
2023-08-09T00:51:11.214Z,94.60
2023-08-09T00:53:35.871Z,94.60
2023-08-09T00:55:59.501Z,94.70
2023-08-09T00:58:25.157Z,94.30
2023-08-09T01:00:48.444Z,94.60
2023-08-09T01:03:12.983Z,94.60
2023-08-09T01:05:52.413Z,94.40
2023-08-09T01:08:26.013Z,94.50
2023-08-09T01:10:58.600Z,94.70
2023-08-09T01:13:23.288Z,94.60
2023-08-09T01:15:47.348Z,94.50
2023-08-09T01:18:11.321Z,94.60
2023-08-09T01:20:36.924Z,94.70
2023-08-09T01:23:04.698Z,94.70
2023-08-09T01:25:30.232Z,94.70
2023-08-09T01:27:53.952Z,94.80
2023-08-09T01:30:17.374Z,95.00
2023-08-09T01:32:40.759Z,94.90
2023-08-09T01:35:04.257Z,94.60
2023-08-09T01:37:35.842Z,94.80
2023-08-09T01:40:02.925Z,94.50
2023-08-09T01:42:28.627Z,94.50
2023-08-09T01:44:53.774Z,94.40
2023-08-09T01:47:18.218Z,94.50
2023-08-09T01:49:48.664Z,94.80
2023-08-09T01:52:12.583Z,94.50
2023-08-09T01:54:36.079Z,94.40
2023-08-09T01:56:59.753Z,94.60
2023-08-09T01:59:25.000Z,94.70
2023-08-09T02:01:48.208Z,94.30
2023-08-09T02:04:11.861Z,94.30
2023-08-09T02:06:35.251Z,94.50
2023-08-09T02:08:58.886Z,94.60
2023-08-09T02:11:22.188Z,94.50
2023-08-09T02:13:45.446Z,94.50
2023-08-09T02:16:10.735Z,94.40
2023-08-09T02:18:34.605Z,93.80
2023-08-09T02:20:59.544Z,93.90
2023-08-09T02:23:22.967Z,94.10
2023-08-09T02:25:46.292Z,94.20
2023-08-09T02:28:09.793Z,94.40
2023-08-09T02:30:33.286Z,94.50
2023-08-09T02:32:58.175Z,94.50
2023-08-09T02:35:21.845Z,94.80
2023-08-09T02:37:46.659Z,94.60
2023-08-09T02:40:12.102Z,94.60
2023-08-09T02:42:35.474Z,94.60
2023-08-09T02:44:58.724Z,94.60
2023-08-09T02:47:22.783Z,94.80
2023-08-09T02:49:47.451Z,94.50
2023-08-09T02:52:10.665Z,94.50
2023-08-09T02:54:34.106Z,94.40
2023-08-09T02:56:57.452Z,94.30
2023-08-09T02:59:20.844Z,94.40
2023-08-09T03:01:45.454Z,94.20
2023-08-09T03:04:09.048Z,94.20
2023-08-09T03:06:33.623Z,94.30
2023-08-09T03:08:56.873Z,94.20
2023-08-09T03:11:22.395Z,94.40
2023-08-09T03:13:45.759Z,94.50
2023-08-09T03:16:09.427Z,94.50
2023-08-09T03:18:33.472Z,94.50
2023-08-09T03:20:56.725Z,94.50
2023-08-09T03:23:21.349Z,94.50
2023-08-09T03:25:44.593Z,94.60
2023-08-09T03:28:09.011Z,94.60
2023-08-09T03:30:32.475Z,94.50
2023-08-09T03:32:55.831Z,94.50
2023-08-09T03:35:20.415Z,94.30
2023-08-09T03:37:43.744Z,94.20
2023-08-09T03:40:13.755Z,94.20
2023-08-09T03:42:37.533Z,93.90
2023-08-09T03:45:01.052Z,94.00
2023-08-09T03:47:24.986Z,94.20
2023-08-09T03:49:48.551Z,94.10
2023-08-09T03:52:12.676Z,94.30
2023-08-09T03:54:36.226Z,94.10
2023-08-09T03:57:01.091Z,94.00
2023-08-09T03:59:24.947Z,94.00
2023-08-09T04:01:48.674Z,94.00
2023-08-09T04:04:12.089Z,94.10
2023-08-09T04:06:35.424Z,94.10
2023-08-09T04:08:58.667Z,94.10
2023-08-09T04:11:21.904Z,94.00
2023-08-09T04:13:46.583Z,93.90
2023-08-09T04:16:09.985Z,94.20
2023-08-09T04:18:33.942Z,94.10
2023-08-09T04:20:57.089Z,94.40
2023-08-09T04:23:20.957Z,94.20
2023-08-09T04:25:44.127Z,94.30
2023-08-09T04:28:10.062Z,94.50
2023-08-09T04:30:36.370Z,94.40
2023-08-09T04:33:01.627Z,94.50
2023-08-09T04:35:25.268Z,94.40
2023-08-09T04:37:48.472Z,94.30
2023-08-09T04:40:13.312Z,94.50
2023-08-09T04:42:36.838Z,94.40
2023-08-09T04:45:00.141Z,94.20
2023-08-09T04:47:24.983Z,94.10
2023-08-09T04:49:48.210Z,94.40
2023-08-09T04:52:11.480Z,94.20
2023-08-09T04:54:34.682Z,94.40
2023-08-09T04:56:57.914Z,94.30
2023-08-09T04:59:21.169Z,93.80
2023-08-09T05:01:48.927Z,94.10
2023-08-09T05:04:13.500Z,93.90
2023-08-09T05:06:37.487Z,93.90
2023-08-09T05:09:00.695Z,93.80
2023-08-09T05:11:24.093Z,93.70
2023-08-09T05:13:47.623Z,93.70
2023-08-09T05:16:10.804Z,93.80
2023-08-09T05:18:34.078Z,93.70
2023-08-09T05:20:59.245Z,93.90
2023-08-09T05:23:23.102Z,93.80
2023-08-09T05:25:46.552Z,94.10
2023-08-09T05:28:09.998Z,94.00
2023-08-09T05:30:33.240Z,94.30
2023-08-09T05:32:58.904Z,94.10
2023-08-09T05:35:22.155Z,94.20
2023-08-09T05:37:46.755Z,93.70
2023-08-09T05:40:14.028Z,94.00
2023-08-09T05:42:37.537Z,94.00
2023-08-09T05:45:01.388Z,93.80
2023-08-09T05:47:24.743Z,94.10
2023-08-09T05:49:48.053Z,93.90
2023-08-09T05:52:11.499Z,93.30
2023-08-09T05:54:36.090Z,93.40
2023-08-09T05:56:59.744Z,93.20
2023-08-09T05:59:23.238Z,93.50
2023-08-09T06:01:46.477Z,93.60
2023-08-09T06:04:09.994Z,93.70
2023-08-09T06:06:34.437Z,94.10
2023-08-09T06:08:57.888Z,94.10
2023-08-09T06:11:22.427Z,94.00
2023-08-09T06:13:45.677Z,93.90
2023-08-09T06:16:08.918Z,93.80
2023-08-09T06:18:32.232Z,93.70
2023-08-09T06:20:56.923Z,93.80
2023-08-09T06:23:20.296Z,93.80
2023-08-09T06:25:43.827Z,93.60
2023-08-09T06:28:08.671Z,93.60
2023-08-09T06:30:31.986Z,93.30
2023-08-09T06:32:55.536Z,93.20
2023-08-09T06:35:19.689Z,93.70
2023-08-09T06:37:43.166Z,93.40
2023-08-09T06:40:08.867Z,93.50
2023-08-09T06:42:32.379Z,93.10
2023-08-09T06:44:59.184Z,92.70
2023-08-09T06:47:22.575Z,93.50
2023-08-09T06:49:45.924Z,93.40
2023-08-09T06:52:09.161Z,93.50
2023-08-09T06:54:32.588Z,93.10
2023-08-09T06:56:56.013Z,93.20
2023-08-09T06:59:19.690Z,92.60
2023-08-09T07:01:44.900Z,92.90
2023-08-09T07:04:08.860Z,92.40
2023-08-09T07:06:32.196Z,92.90
2023-08-09T07:08:55.537Z,93.40
2023-08-09T07:11:18.900Z,93.00
2023-08-09T07:13:42.146Z,92.70
2023-08-09T07:16:05.914Z,92.80
2023-08-09T07:18:30.503Z,92.30
2023-08-09T07:20:53.707Z,92.80
2023-08-09T07:23:29.633Z,92.50
2023-08-09T07:26:00.310Z,92.10
2023-08-09T07:28:23.488Z,91.40
2023-08-09T07:30:46.718Z,91.70
2023-08-09T07:33:10.004Z,91.90
2023-08-09T07:35:34.725Z,91.20
2023-08-09T07:37:58.012Z,91.70
2023-08-09T07:40:21.512Z,91.70
2023-08-09T07:42:45.766Z,91.50
2023-08-09T07:45:10.611Z,91.40
2023-08-09T07:47:33.985Z,91.50
2023-08-09T07:49:57.258Z,91.50
2023-08-09T07:52:22.220Z,89.70
2023-08-09T07:54:45.658Z,89.80
2023-08-09T07:57:08.815Z,89.40
2023-08-09T07:59:32.064Z,89.40
2023-08-09T08:01:55.261Z,89.40
2023-08-09T08:04:18.551Z,89.20
2023-08-09T08:06:42.932Z,88.90
2023-08-09T08:09:13.615Z,88.40
2023-08-09T08:11:37.495Z,89.20
2023-08-09T08:14:00.710Z,90.30
2023-08-09T08:16:24.251Z,89.10
2023-08-09T08:18:47.677Z,89.90
2023-08-09T08:21:11.038Z,89.30
2023-08-09T08:23:34.324Z,88.20
2023-08-09T08:25:59.107Z,89.50
2023-08-09T08:28:22.338Z,89.60
2023-08-09T08:30:45.602Z,88.80
2023-08-09T08:33:09.322Z,88.70
2023-08-09T08:35:37.764Z,89.00
2023-08-09T08:38:01.105Z,89.00
2023-08-09T08:40:25.328Z,86.30
2023-08-09T08:42:51.599Z,85.70
2023-08-09T08:45:16.573Z,86.90
2023-08-09T08:47:41.698Z,87.80
2023-08-09T08:50:05.549Z,87.70
2023-08-09T08:52:31.659Z,87.70
2023-08-09T08:54:55.575Z,88.20
2023-08-09T08:57:18.893Z,87.20
2023-08-09T08:59:43.609Z,88.20
2023-08-09T09:02:07.374Z,86.70
2023-08-09T09:04:30.712Z,86.40
2023-08-09T09:06:54.435Z,87.70
2023-08-09T09:09:18.931Z,85.90
2023-08-09T09:11:42.240Z,85.90
2023-08-09T09:14:12.451Z,85.70
2023-08-09T09:16:38.864Z,85.50
2023-08-09T09:19:05.057Z,81.20
2023-08-09T09:21:35.848Z,80.00
2023-08-09T09:23:59.062Z,86.20
2023-08-09T09:26:22.990Z,82.20
2023-08-09T09:28:48.867Z,83.70
2023-08-09T09:31:13.386Z,85.60
2023-08-09T09:33:38.740Z,83.60
2023-08-09T09:36:02.254Z,84.40
2023-08-09T09:38:25.508Z,85.50
2023-08-09T09:40:48.756Z,83.70
2023-08-09T09:43:13.003Z,85.20
2023-08-09T09:45:38.878Z,85.20
2023-08-09T09:48:04.077Z,82.60
2023-08-09T09:50:32.545Z,81.90
2023-08-09T09:52:56.854Z,83.90
2023-08-09T09:55:21.967Z,85.20
2023-08-09T09:57:45.296Z,83.20
2023-08-09T10:00:12.858Z,82.60
2023-08-09T10:02:46.751Z,81.40
2023-08-09T10:05:12.801Z,80.30
2023-08-09T10:07:38.063Z,84.30
2023-08-09T10:10:04.307Z,79.30
2023-08-09T10:12:27.862Z,78.80
2023-08-09T10:14:51.602Z,79.90
2023-08-09T10:17:15.795Z,81.60
2023-08-09T10:19:40.732Z,82.30
2023-08-09T10:22:04.831Z,77.20
2023-08-09T10:24:32.099Z,76.50
2023-08-09T10:26:58.145Z,76.50
2023-08-09T10:29:25.206Z,79.00
2023-08-09T10:31:56.561Z,76.70
2023-08-09T10:34:22.279Z,77.50
2023-08-09T10:36:55.460Z,73.40
2023-08-09T10:39:20.574Z,73.30
2023-08-09T10:42:02.559Z,69.10
2023-08-09T10:44:41.944Z,66.50
2023-08-09T10:47:07.440Z,68.50
2023-08-09T10:49:36.614Z,68.30
2023-08-09T10:51:59.962Z,69.80
2023-08-09T10:54:23.920Z,69.00
2023-08-09T10:56:50.018Z,72.30
2023-08-09T10:59:16.093Z,71.40
2023-08-09T11:01:40.468Z,69.40
2023-08-09T11:04:10.400Z,70.60
2023-08-09T11:06:39.846Z,68.20
2023-08-09T11:09:11.226Z,71.70
2023-08-09T11:11:35.470Z,71.10
2023-08-09T11:13:59.067Z,73.80
2023-08-09T11:16:23.725Z,64.60
2023-08-09T11:18:47.278Z,68.50
2023-08-09T11:21:10.610Z,64.90
2023-08-09T11:23:34.092Z,66.60
2023-08-09T11:25:57.720Z,67.00
2023-08-09T11:28:21.182Z,68.90
2023-08-09T11:30:46.470Z,68.70
2023-08-09T11:33:12.795Z,68.70
2023-08-09T11:35:41.030Z,63.90
2023-08-09T11:38:10.980Z,69.60
2023-08-09T11:40:45.793Z,69.90
2023-08-09T11:43:13.586Z,68.60
2023-08-09T11:45:55.710Z,65.70
2023-08-09T11:48:32.169Z,66.20
2023-08-09T11:51:08.467Z,67.60
2023-08-09T11:53:32.149Z,65.40
2023-08-09T11:56:01.281Z,65.40
2023-08-09T11:58:24.861Z,67.70
2023-08-09T12:00:48.114Z,66.50
2023-08-09T12:03:11.626Z,68.30
2023-08-09T12:05:36.185Z,65.20
2023-08-09T12:08:05.166Z,67.50
2023-08-09T12:10:28.428Z,65.20
2023-08-09T12:12:53.015Z,68.40
2023-08-09T12:15:16.273Z,69.00
2023-08-09T12:17:39.803Z,69.10
2023-08-09T12:20:07.701Z,67.30
2023-08-09T12:22:32.926Z,67.30
2023-08-09T12:24:58.012Z,70.50
2023-08-09T12:27:21.319Z,66.40
2023-08-09T12:29:44.533Z,65.00
2023-08-09T12:32:08.153Z,65.40
2023-08-09T12:34:31.552Z,62.90
2023-08-09T12:36:55.092Z,63.80
2023-08-09T12:39:19.690Z,64.50
2023-08-09T12:41:43.683Z,62.80
2023-08-09T12:44:08.850Z,65.30
2023-08-09T12:46:32.615Z,65.50
2023-08-09T12:48:55.853Z,62.40
2023-08-09T12:51:19.079Z,63.30
2023-08-09T12:53:45.396Z,60.50
2023-08-09T12:56:10.144Z,60.80
2023-08-09T12:58:34.160Z,60.30
2023-08-09T13:00:57.368Z,66.30
2023-08-09T13:03:20.679Z,62.90
2023-08-09T13:05:44.784Z,60.60
2023-08-09T13:08:08.173Z,65.50
2023-08-09T13:10:31.960Z,60.70
2023-08-09T13:12:56.523Z,60.60
2023-08-09T13:15:19.734Z,61.20
2023-08-09T13:17:43.088Z,62.20
2023-08-09T13:20:09.479Z,58.10
2023-08-09T13:22:32.660Z,58.40
2023-08-09T13:24:56.592Z,59.90
2023-08-09T13:27:19.779Z,58.50
2023-08-09T13:29:44.567Z,61.50
2023-08-09T13:32:08.507Z,58.40
2023-08-09T13:34:31.973Z,58.60
2023-08-09T13:36:55.131Z,63.20
2023-08-09T13:39:18.971Z,58.60
2023-08-09T13:41:42.131Z,55.70
2023-08-09T13:44:06.416Z,55.50
2023-08-09T13:46:34.069Z,60.20
2023-08-09T13:48:57.435Z,57.30
2023-08-09T13:51:23.000Z,62.60
2023-08-09T13:53:46.227Z,65.30
2023-08-09T13:56:09.449Z,55.80
2023-08-09T13:58:32.648Z,56.00
2023-08-09T14:00:56.184Z,54.10
2023-08-09T14:03:20.825Z,53.70
2023-08-09T14:05:44.469Z,53.60
2023-08-09T14:08:08.652Z,54.10
2023-08-09T14:10:32.054Z,52.60
2023-08-09T14:12:55.352Z,56.90
2023-08-09T14:15:18.715Z,57.80
2023-08-09T14:17:41.963Z,54.00
2023-08-09T14:20:11.111Z,55.90
2023-08-09T14:22:34.371Z,55.10
2023-08-09T14:24:57.764Z,53.30
2023-08-09T14:27:21.246Z,57.80
2023-08-09T14:29:46.262Z,54.90
2023-08-09T14:32:09.601Z,56.70
2023-08-09T14:34:33.023Z,55.00
2023-08-09T14:36:59.330Z,57.20
2023-08-09T14:39:22.566Z,56.90
2023-08-09T14:41:45.824Z,55.00
2023-08-09T14:44:09.105Z,54.70
2023-08-09T14:46:32.388Z,54.40
2023-08-09T14:49:20.777Z,56.20
2023-08-09T14:51:44.042Z,55.50
2023-08-09T14:54:08.788Z,53.40
2023-08-09T14:56:31.982Z,55.70
2023-08-09T14:58:56.041Z,58.40
2023-08-09T15:01:19.285Z,55.60
2023-08-09T15:03:42.529Z,53.90
2023-08-09T15:06:06.066Z,57.30
2023-08-09T15:08:29.229Z,53.50
2023-08-09T15:10:54.592Z,56.10
2023-08-09T15:13:18.045Z,54.60
2023-08-09T15:15:41.377Z,54.20
2023-08-09T15:18:05.156Z,55.10
2023-08-09T15:20:28.465Z,55.30
2023-08-09T15:22:51.660Z,55.20
2023-08-09T15:25:20.709Z,56.20
2023-08-09T15:27:45.560Z,57.80
2023-08-09T15:30:11.299Z,56.90
2023-08-09T15:32:35.814Z,51.90
2023-08-09T15:34:59.021Z,52.80
2023-08-09T15:37:22.195Z,53.80
2023-08-09T15:39:45.427Z,54.30
2023-08-09T15:42:17.705Z,54.30
2023-08-09T15:44:43.471Z,58.00
2023-08-09T15:47:07.207Z,59.80
2023-08-09T15:49:30.712Z,57.20
2023-08-09T15:51:53.912Z,56.00
2023-08-09T15:54:17.140Z,56.20
2023-08-09T15:56:40.393Z,54.70
2023-08-09T15:59:03.719Z,58.10
2023-08-09T16:01:29.168Z,57.30
2023-08-09T16:03:53.409Z,54.70
2023-08-09T16:06:16.841Z,58.80
2023-08-09T16:08:40.156Z,56.30
2023-08-09T16:11:03.331Z,54.70
2023-08-09T16:13:26.665Z,56.10
2023-08-09T16:15:49.949Z,55.90
2023-08-09T16:18:14.767Z,59.50
2023-08-09T16:20:38.658Z,58.10
2023-08-09T16:23:02.031Z,57.50
2023-08-09T16:25:25.793Z,60.60
2023-08-09T16:27:49.278Z,60.40
2023-08-09T16:30:14.393Z,60.80
2023-08-09T16:32:38.007Z,60.20
2023-08-09T16:35:02.742Z,59.70
2023-08-09T16:37:28.074Z,60.80
2023-08-09T16:39:51.264Z,60.50
2023-08-09T16:42:14.771Z,59.90
2023-08-09T16:44:38.020Z,60.20
2023-08-09T16:47:02.033Z,57.50
2023-08-09T16:49:25.402Z,58.80
2023-08-09T16:51:49.910Z,59.30
2023-08-09T16:54:14.166Z,59.60
2023-08-09T16:56:37.368Z,60.40
2023-08-09T16:59:00.601Z,60.90
2023-08-09T17:01:25.265Z,59.30
2023-08-09T17:03:49.018Z,59.80
2023-08-09T17:06:12.375Z,58.60
2023-08-09T17:08:39.053Z,58.70
2023-08-09T17:11:02.288Z,59.00
2023-08-09T17:13:25.449Z,57.50
2023-08-09T17:15:48.757Z,59.30
2023-08-09T17:18:12.259Z,59.40
2023-08-09T17:20:36.447Z,58.90
2023-08-09T17:22:59.703Z,60.70
2023-08-09T17:25:24.585Z,60.20
2023-08-09T17:27:48.112Z,58.50
2023-08-09T17:30:11.895Z,58.20
2023-08-09T17:32:35.178Z,57.90
2023-08-09T17:34:58.671Z,59.80
2023-08-09T17:37:21.860Z,58.90
2023-08-09T17:39:45.368Z,58.90
2023-08-09T17:42:10.136Z,60.10
2023-08-09T17:44:33.757Z,60.70
2023-08-09T17:46:57.037Z,60.50
2023-08-09T17:49:20.303Z,59.30
2023-08-09T17:51:43.516Z,58.40
2023-08-09T17:54:07.419Z,59.50
2023-08-09T17:56:30.639Z,59.10
2023-08-09T17:58:55.271Z,57.90
2023-08-09T18:01:18.490Z,59.90
2023-08-09T18:03:41.932Z,59.00
2023-08-09T18:06:06.076Z,60.10
2023-08-09T18:08:29.333Z,60.80
2023-08-09T18:10:54.604Z,60.30
2023-08-09T18:13:17.767Z,60.80
2023-08-09T18:15:42.357Z,61.00
2023-08-09T18:18:05.993Z,61.80
2023-08-09T18:20:29.168Z,64.10
2023-08-09T18:22:53.361Z,63.00
2023-08-09T18:25:18.052Z,63.60
2023-08-09T18:27:41.261Z,64.20
2023-08-09T18:30:06.134Z,64.80
2023-08-09T18:32:31.121Z,64.40
2023-08-09T18:35:03.704Z,66.00
2023-08-09T18:37:34.866Z,65.90
2023-08-09T18:39:58.072Z,67.80
2023-08-09T18:42:21.423Z,67.00
2023-08-09T18:44:44.821Z,67.30
2023-08-09T18:47:08.425Z,67.40
2023-08-09T18:49:32.976Z,70.30
2023-08-09T18:51:56.277Z,68.70
2023-08-09T18:54:19.809Z,70.20
2023-08-09T18:56:43.052Z,69.10
2023-08-09T18:59:06.833Z,69.80
2023-08-09T19:01:30.376Z,70.60
2023-08-09T19:03:54.100Z,70.10
2023-08-09T19:06:18.726Z,71.00
2023-08-09T19:08:44.572Z,71.80
2023-08-09T19:11:08.200Z,71.40
2023-08-09T19:13:31.717Z,71.10
2023-08-09T19:15:55.118Z,70.90
2023-08-09T19:18:18.377Z,71.70
2023-08-09T19:20:41.624Z,71.60
2023-08-09T19:23:07.416Z,72.20
2023-08-09T19:25:30.952Z,71.60
2023-08-09T19:27:55.010Z,72.10
2023-08-09T19:30:18.900Z,73.30
2023-08-09T19:32:42.172Z,72.00
2023-08-09T19:35:07.901Z,71.90
2023-08-09T19:37:31.271Z,72.70
2023-08-09T19:39:55.874Z,71.70
2023-08-09T19:42:19.329Z,72.60
2023-08-09T19:44:42.702Z,72.20
2023-08-09T19:47:06.845Z,72.20
2023-08-09T19:49:30.473Z,72.40
2023-08-09T19:51:54.527Z,75.10
2023-08-09T19:54:17.814Z,73.90
2023-08-09T19:56:43.178Z,74.00
2023-08-09T19:59:06.457Z,73.70
2023-08-09T20:01:29.743Z,73.80
2023-08-09T20:03:53.721Z,74.60
2023-08-09T20:06:16.951Z,76.40
2023-08-09T20:08:40.180Z,76.40
2023-08-09T20:11:04.142Z,76.40
2023-08-09T20:13:28.816Z,76.70
2023-08-09T20:15:51.958Z,77.50
2023-08-09T20:18:15.180Z,76.50
2023-08-09T20:20:38.392Z,77.70
2023-08-09T20:23:03.711Z,78.00
2023-08-09T20:25:27.220Z,78.30
2023-08-09T20:27:50.570Z,78.30
2023-08-09T20:30:15.503Z,78.60
2023-08-09T20:32:38.750Z,78.80
2023-08-09T20:35:02.332Z,78.90
2023-08-09T20:37:25.555Z,79.00
2023-08-09T20:39:49.558Z,79.40
2023-08-09T20:42:12.751Z,79.20
2023-08-09T20:44:37.015Z,79.70
2023-08-09T20:47:01.795Z,80.30
2023-08-09T20:49:25.259Z,80.60
2023-08-09T20:51:48.455Z,81.50
2023-08-09T20:54:11.615Z,82.10
2023-08-09T20:56:35.308Z,82.50
2023-08-09T20:59:00.546Z,82.40
2023-08-09T21:01:24.003Z,82.60
2023-08-09T21:03:48.571Z,82.90
2023-08-09T21:06:12.959Z,83.10
2023-08-09T21:08:36.174Z,83.30
2023-08-09T21:10:59.552Z,83.50
2023-08-09T21:13:22.761Z,83.90
2023-08-09T21:15:46.066Z,84.10
2023-08-09T21:18:09.452Z,83.90
2023-08-09T21:20:34.110Z,84.40
2023-08-09T21:22:57.926Z,84.20
2023-08-09T21:30:15.552Z,85.00
2023-08-09T21:32:38.773Z,85.40
2023-08-09T21:35:01.984Z,85.20
2023-08-09T21:37:26.613Z,85.60
2023-08-09T21:39:49.812Z,85.90
2023-08-09T21:42:13.713Z,85.80
2023-08-09T21:44:36.909Z,85.80
2023-08-09T21:47:00.099Z,85.80
2023-08-09T21:49:23.322Z,86.00
2023-08-09T21:51:46.495Z,86.00
2023-08-09T21:54:11.112Z,86.30
2023-08-09T21:56:34.317Z,86.20
2023-08-09T21:58:57.541Z,85.90
2023-08-09T22:01:22.703Z,85.80
2023-08-09T22:03:46.080Z,86.50
2023-08-09T22:06:10.235Z,86.80
2023-08-09T22:08:33.431Z,86.90
2023-08-09T22:10:58.020Z,86.90
2023-08-09T22:13:21.289Z,86.90
2023-08-09T22:15:44.954Z,87.00
2023-08-09T22:18:08.733Z,86.40
2023-08-09T22:20:31.985Z,86.20
2023-08-09T22:22:55.945Z,86.80
2023-08-09T22:25:19.249Z,87.10
2023-08-09T22:27:43.921Z,87.20
2023-08-09T22:30:09.640Z,86.90
2023-08-09T22:32:33.049Z,86.90
2023-08-09T22:34:56.255Z,87.30
2023-08-09T22:37:19.646Z,87.40
2023-08-09T22:39:42.903Z,87.40
2023-08-09T22:42:07.401Z,87.30
2023-08-09T22:44:31.988Z,87.30
2023-08-09T22:46:55.662Z,87.70
2023-08-09T22:49:18.993Z,87.40
2023-08-09T22:51:43.188Z,87.30
2023-08-09T22:54:07.281Z,87.40
2023-08-09T22:56:30.475Z,87.30
2023-08-09T22:58:53.682Z,87.30
2023-08-09T23:01:18.548Z,87.40
2023-08-09T23:03:41.858Z,87.30
2023-08-09T23:06:07.626Z,87.30
2023-08-09T23:08:30.870Z,87.20
2023-08-09T23:10:55.096Z,86.80
2023-08-09T23:13:18.312Z,87.30
2023-08-09T23:15:45.504Z,87.50
2023-08-09T23:18:10.386Z,87.40
2023-08-09T23:20:33.740Z,87.70
2023-08-09T23:23:00.733Z,87.50
2023-08-09T23:25:24.043Z,87.90
2023-08-09T23:27:47.250Z,88.10
2023-08-09T23:30:11.412Z,88.10
2023-08-09T23:32:34.884Z,88.10
2023-08-09T23:34:59.532Z,88.00
2023-08-09T23:37:22.693Z,88.10
2023-08-09T23:39:46.921Z,88.10
2023-08-09T23:42:10.564Z,88.20
2023-08-09T23:44:34.070Z,88.30
2023-08-09T23:46:57.618Z,88.20
2023-08-09T23:49:21.036Z,88.00
2023-08-09T23:51:45.625Z,87.90
2023-08-09T23:54:08.892Z,88.00
2023-08-09T23:56:32.105Z,88.20
2023-08-09T23:58:55.360Z,87.80
